Terminal Aerodrome Forecast
Issued by NWS

Home | Current Version | Previous Version | Graphics & Text | Print | Product List | Glossary On
Versions: 1 2 3 4 5 6 7 8 9 10 11 12 13 14 15 16 17 18 19 20 21
927
FTUS43 KABR 260520
TAFMBG
TAF
KMBG 260520Z 2606/2706 33012KT P6SM OVC009
      TEMPO 2606/2608 5SM -DZ BR OVC005
     FM260800 02007KT 3SM -DZ BR OVC003
     FM261400 05011KT P6SM OVC008
     FM262100 07014KT P6SM OVC015
     FM262300 06014KT 5SM -RA BR OVC010=

USA.gov is the U.S. government's official web portal to all federal, state and local government web resources and services.